Terminal Aerodrome Forecast
Issued by NWS

Home | Current Version | Previous Version | Text Only | Print | Product List | Glossary On
Versions: 1 2 3 4 5 6 7 8 9 10 11 12 13
499
FTUS45 KRIW 091125
TAFJAC
TAF
KJAC 091125Z 0912/1012 VRB06KT 3SM -SN SCT015 OVC025
      TEMPO 0912/0915 1 1/2SM -SN BKN015
     FM091500 20012G20KT 1 1/2SM -SN OVC016
     FM100000 20012G22KT 3/4SM -SN OVC010
      AMD LTD TO CLD VIS AND WIND=

USA.gov is the U.S. government's official web portal to all federal, state and local government web resources and services.